createdAt,value
2018-08-24T00:02:21.366Z,59.49
2018-08-24T00:07:25.306Z,60.53
2018-08-24T00:12:29.122Z,59.47
2018-08-24T00:17:32.878Z,59.42
2018-08-24T00:22:36.628Z,59.76
2018-08-24T00:27:40.432Z,59.27
2018-08-24T00:32:44.173Z,58.92
2018-08-24T00:37:47.979Z,59.51
2018-08-24T00:42:51.832Z,59.51
2018-08-24T00:47:55.603Z,59.70
2018-08-24T00:52:59.372Z,59.47
2018-08-24T00:58:03.229Z,59.56
2018-08-24T01:03:07.062Z,59.94
2018-08-24T01:08:10.817Z,59.71
2018-08-24T01:13:15.080Z,59.46
2018-08-24T01:18:20.694Z,59.52
2018-08-24T01:23:25.856Z,59.48
2018-08-24T01:28:30.481Z,59.74
2018-08-24T01:33:34.431Z,59.63
2018-08-24T01:38:38.198Z,59.20
2018-08-24T01:43:42.019Z,59.10
2018-08-24T01:48:45.754Z,59.25
2018-08-24T01:53:49.544Z,59.50
2018-08-24T01:58:53.407Z,60.01
2018-08-24T02:03:57.125Z,59.36
2018-08-24T02:09:00.965Z,58.89
2018-08-24T02:14:09.986Z,59.93
2018-08-24T02:19:15.124Z,59.68
2018-08-24T02:24:18.954Z,59.23
2018-08-24T02:29:22.686Z,58.93
2018-08-24T02:34:26.481Z,59.07
2018-08-24T02:39:30.274Z,59.47
2018-08-24T02:44:34.011Z,58.88
2018-08-24T02:49:37.792Z,59.14
2018-08-24T02:54:41.620Z,59.25
2018-08-24T02:59:45.669Z,59.49
2018-08-24T03:04:49.433Z,59.29
2018-08-24T03:09:53.314Z,59.42
2018-08-24T03:14:57.058Z,59.69
2018-08-24T03:20:00.840Z,59.58
2018-08-24T03:25:04.703Z,59.41
2018-08-24T03:30:08.533Z,59.58
2018-08-24T03:35:12.283Z,59.96
2018-08-24T03:40:16.154Z,60.37
2018-08-24T03:45:19.957Z,62.21
2018-08-24T03:50:23.664Z,65.55
2018-08-24T03:55:27.399Z,66.58
2018-08-24T04:00:31.157Z,67.97
2018-08-24T04:05:35.010Z,68.45
2018-08-24T04:10:38.966Z,69.69
2018-08-24T04:15:42.928Z,72.95
2018-08-24T04:20:46.699Z,71.74
2018-08-24T04:25:50.549Z,70.87
2018-08-24T04:30:54.287Z,71.59
2018-08-24T04:35:58.100Z,72.34
2018-08-24T04:41:01.860Z,71.12
2018-08-24T04:46:05.662Z,71.06
2018-08-24T04:51:09.399Z,70.98
2018-08-24T04:56:13.243Z,69.77
2018-08-24T05:01:16.947Z,68.26
2018-08-24T05:06:20.703Z,69.87
2018-08-24T05:11:24.475Z,69.11
2018-08-24T05:16:28.284Z,68.37
2018-08-24T05:21:32.093Z,68.57
2018-08-24T05:26:35.862Z,67.08
2018-08-24T05:31:39.593Z,67.62
2018-08-24T05:36:43.341Z,69.31
2018-08-24T05:41:47.091Z,69.95
2018-08-24T05:46:50.877Z,66.90
2018-08-24T05:51:54.630Z,68.33
2018-08-24T05:56:58.337Z,67.25
2018-08-24T06:02:02.115Z,69.30
2018-08-24T06:07:05.917Z,69.86
2018-08-24T06:12:09.689Z,69.46
2018-08-24T06:17:18.665Z,69.08
2018-08-24T06:22:22.399Z,70.42
2018-08-24T06:27:26.213Z,72.43
2018-08-24T06:32:29.962Z,73.85
2018-08-24T06:37:33.759Z,74.47
2018-08-24T06:42:37.531Z,72.41
2018-08-24T06:47:41.367Z,72.71
2018-08-24T06:52:45.069Z,69.44
2018-08-24T06:57:48.842Z,67.85
2018-08-24T07:02:52.863Z,67.67
2018-08-24T07:07:56.677Z,66.42
2018-08-24T07:13:00.530Z,68.10
2018-08-24T07:18:04.449Z,67.84
2018-08-24T07:23:08.281Z,65.74
2018-08-24T07:28:12.099Z,67.36
2018-08-24T07:33:15.939Z,66.89
2018-08-24T07:38:19.717Z,68.30
2018-08-24T07:43:23.612Z,66.24
2018-08-24T07:48:27.371Z,65.04
2018-08-24T07:53:31.139Z,64.19
2018-08-24T07:58:35.090Z,63.96
2018-08-24T08:03:38.833Z,64.98
2018-08-24T08:08:45.582Z,64.49
2018-08-24T08:13:49.391Z,64.97
2018-08-24T08:18:53.184Z,63.45
2018-08-24T08:23:56.968Z,63.46
2018-08-24T08:29:00.786Z,63.05
2018-08-24T08:34:04.681Z,63.02
2018-08-24T08:39:10.448Z,62.07
2018-08-24T08:44:15.113Z,62.10
2018-08-24T08:49:18.952Z,61.93
2018-08-24T08:54:22.683Z,60.72
2018-08-24T08:59:26.507Z,59.79
2018-08-24T09:04:30.261Z,58.60
2018-08-24T09:09:34.016Z,59.08
2018-08-24T09:14:37.772Z,59.42
2018-08-24T09:19:46.643Z,60.86
2018-08-24T09:24:55.683Z,60.11
2018-08-24T09:30:03.199Z,60.75
2018-08-24T09:35:06.943Z,59.31
2018-08-24T09:40:10.693Z,60.41
2018-08-24T09:45:14.437Z,59.10
2018-08-24T09:50:23.364Z,58.93
2018-08-24T09:55:31.195Z,59.39
2018-08-24T10:00:40.086Z,59.35
2018-08-24T10:05:49.110Z,57.40
2018-08-24T10:10:53.004Z,58.44
2018-08-24T10:15:56.726Z,57.61
2018-08-24T10:21:00.479Z,56.62
2018-08-24T10:26:04.207Z,56.28
2018-08-24T10:31:07.957Z,53.43
2018-08-24T10:36:11.740Z,53.93
2018-08-24T10:41:15.450Z,51.99
2018-08-24T10:46:19.726Z,51.70
2018-08-24T10:51:23.520Z,53.02
2018-08-24T10:56:33.684Z,53.82
2018-08-24T11:01:37.266Z,54.63
2018-08-24T11:06:40.918Z,54.58
2018-08-24T11:11:44.560Z,54.94
2018-08-24T11:16:48.173Z,55.02
2018-08-24T11:21:51.857Z,55.51
2018-08-24T11:26:56.889Z,55.64
2018-08-24T11:32:00.423Z,55.52
2018-08-24T11:37:04.196Z,55.90
2018-08-24T11:42:07.882Z,56.23
2018-08-24T11:47:14.505Z,55.93
2018-08-24T11:52:18.887Z,55.54
2018-08-24T11:57:22.639Z,55.84
2018-08-24T12:02:26.387Z,56.16
2018-08-24T12:07:30.020Z,56.06
2018-08-24T12:12:33.937Z,55.52
2018-08-24T12:17:38.375Z,55.24
2018-08-24T12:22:41.939Z,54.86
2018-08-24T12:27:45.571Z,54.73
2018-08-24T12:32:49.553Z,55.32
2018-08-24T12:37:53.387Z,53.38
2018-08-24T12:42:57.050Z,53.10
2018-08-24T12:48:00.733Z,51.70
2018-08-24T12:53:04.452Z,52.78
2018-08-24T12:58:08.106Z,53.32
2018-08-24T13:03:11.875Z,53.12
2018-08-24T13:08:16.758Z,51.71
2018-08-24T13:13:21.310Z,51.59
2018-08-24T13:18:25.504Z,50.27
2018-08-24T13:23:29.206Z,49.58
2018-08-24T13:28:32.837Z,47.70
2018-08-24T13:33:36.725Z,44.44
2018-08-24T13:38:40.554Z,47.16
2018-08-24T13:43:44.568Z,47.87
2018-08-24T13:48:49.103Z,47.93
2018-08-24T13:53:52.755Z,47.19
2018-08-24T13:58:56.503Z,47.10
2018-08-24T14:04:00.150Z,47.47
2018-08-24T14:09:04.010Z,47.85
2018-08-24T14:14:07.709Z,48.17
2018-08-24T14:19:11.580Z,48.68
2018-08-24T14:24:15.239Z,48.00
2018-08-24T14:29:18.940Z,48.71
2018-08-24T14:34:22.530Z,48.81
2018-08-24T14:39:26.126Z,48.97
2018-08-24T14:44:29.804Z,49.03
2018-08-24T14:49:33.428Z,48.63
2018-08-24T14:54:37.255Z,48.73
2018-08-24T14:59:40.867Z,48.64
2018-08-24T15:04:44.541Z,48.88
2018-08-24T15:09:48.460Z,48.86
2018-08-24T15:14:52.227Z,49.12
2018-08-24T15:19:55.908Z,49.13
2018-08-24T15:24:59.951Z,49.41
2018-08-24T15:30:04.375Z,49.10
2018-08-24T15:35:08.617Z,48.96
2018-08-24T15:40:12.290Z,49.04
2018-08-24T15:45:16.015Z,49.05
2018-08-24T15:50:19.828Z,49.26
2018-08-24T15:55:24.076Z,49.02
2018-08-24T16:00:27.823Z,48.91
2018-08-24T16:05:31.489Z,49.24
2018-08-24T16:10:35.153Z,49.56
2018-08-24T16:15:38.917Z,49.61
2018-08-24T16:20:42.921Z,49.43
2018-08-24T16:25:47.215Z,49.44
2018-08-24T16:30:51.002Z,44.71
2018-08-24T16:35:54.606Z,44.73
2018-08-24T16:40:58.215Z,44.33
2018-08-24T16:46:02.034Z,46.25
2018-08-24T16:51:05.719Z,45.77
2018-08-24T16:56:09.320Z,48.26
2018-08-24T17:01:13.055Z,49.29
2018-08-24T17:06:16.675Z,49.00
2018-08-24T17:11:20.246Z,48.72
2018-08-24T17:16:23.816Z,48.88
2018-08-24T17:21:27.419Z,47.78
2018-08-24T17:26:31.049Z,47.81
2018-08-24T17:31:34.650Z,47.56
2018-08-24T17:36:38.355Z,47.58
2018-08-24T17:41:42.096Z,47.16
2018-08-24T17:46:45.605Z,47.05
2018-08-24T17:51:49.293Z,47.69
2018-08-24T17:56:52.920Z,47.28
2018-08-24T18:01:56.610Z,46.68
2018-08-24T18:07:00.246Z,48.02
2018-08-24T18:12:03.981Z,49.23
2018-08-24T18:17:07.925Z,49.95
2018-08-24T18:22:11.777Z,50.03
2018-08-24T18:27:15.710Z,50.23
2018-08-24T18:32:19.475Z,50.25
2018-08-24T18:37:23.428Z,51.15
2018-08-24T18:42:27.266Z,52.62
2018-08-24T18:47:31.356Z,52.22
2018-08-24T18:52:35.080Z,51.29
2018-08-24T18:57:39.135Z,53.58
2018-08-24T19:02:43.053Z,54.24
2018-08-24T19:07:47.012Z,53.95
2018-08-24T19:12:51.173Z,54.57
2018-08-24T19:18:00.510Z,54.65
2018-08-24T19:23:04.925Z,53.67
2018-08-24T19:28:13.999Z,54.53
2018-08-24T19:33:17.895Z,54.43
2018-08-24T19:43:37.639Z,55.24
2018-08-24T19:48:46.551Z,54.53
2018-08-24T19:53:50.272Z,54.72
2018-08-24T19:58:59.028Z,54.94
2018-08-24T20:04:03.435Z,55.34
2018-08-24T20:09:14.990Z,55.93
2018-08-24T20:14:24.238Z,55.83
2018-08-24T20:19:28.768Z,54.90
2018-08-24T20:24:32.564Z,55.48
2018-08-24T20:29:36.176Z,55.18
2018-08-24T20:34:39.910Z,55.05
2018-08-24T20:39:43.703Z,54.41
2018-08-24T20:44:47.437Z,54.04
2018-08-24T20:49:51.114Z,54.37
2018-08-24T20:54:54.639Z,54.73
2018-08-24T20:59:58.246Z,55.63
2018-08-24T21:05:02.008Z,56.28
2018-08-24T21:10:05.947Z,56.03
2018-08-24T21:15:09.606Z,55.56
2018-08-24T21:20:13.283Z,55.80
2018-08-24T21:25:16.881Z,56.08
2018-08-24T21:30:20.587Z,55.74
2018-08-24T21:35:24.111Z,55.06
2018-08-24T21:40:27.741Z,53.57
2018-08-24T21:45:31.460Z,54.32
2018-08-24T21:50:35.100Z,54.58
2018-08-24T21:55:38.750Z,53.92
2018-08-24T22:00:43.359Z,53.79
2018-08-24T22:05:46.957Z,54.60
2018-08-24T22:10:50.562Z,54.05
2018-08-24T22:15:54.207Z,54.41
2018-08-24T22:20:57.816Z,53.37
2018-08-24T22:26:01.451Z,52.63
2018-08-24T22:31:05.416Z,52.95
2018-08-24T22:36:09.075Z,52.73
2018-08-24T22:41:12.807Z,52.81
2018-08-24T22:46:17.153Z,52.24
2018-08-24T22:51:20.896Z,52.08
2018-08-24T22:56:24.579Z,52.04
2018-08-24T23:01:28.312Z,52.14
2018-08-24T23:06:31.870Z,52.36
2018-08-24T23:11:35.462Z,52.15
2018-08-24T23:16:39.157Z,52.10
2018-08-24T23:21:42.781Z,52.31
2018-08-24T23:26:46.398Z,52.33
2018-08-24T23:31:50.244Z,52.27
2018-08-24T23:36:53.963Z,52.24
2018-08-24T23:41:57.596Z,51.82
2018-08-24T23:47:01.825Z,51.98
2018-08-24T23:52:05.644Z,52.20
2018-08-24T23:57:09.320Z,52.33
